sensor_id;sensor_type;location;lat;lon;timestamp;P1;durP1;ratioP1;P2;durP2;ratioP2
19595;SDS011;9945;46.010;8.946;2023-05-14T00:01:53;2.28;;;2.08;;
19595;SDS011;9945;46.010;8.946;2023-05-14T00:04:21;4.32;;;1.90;;
19595;SDS011;9945;46.010;8.946;2023-05-14T00:06:48;2.90;;;1.80;;
19595;SDS011;9945;46.010;8.946;2023-05-14T00:09:15;3.22;;;2.25;;
19595;SDS011;9945;46.010;8.946;2023-05-14T00:11:42;2.50;;;1.88;;
19595;SDS011;9945;46.010;8.946;2023-05-14T00:14:08;4.25;;;2.40;;
19595;SDS011;9945;46.010;8.946;2023-05-14T00:16:35;2.10;;;1.90;;
19595;SDS011;9945;46.010;8.946;2023-05-14T00:19:03;4.03;;;1.98;;
19595;SDS011;9945;46.010;8.946;2023-05-14T00:21:30;1.80;;;1.70;;
19595;SDS011;9945;46.010;8.946;2023-05-14T00:23:57;1.75;;;1.65;;
19595;SDS011;9945;46.010;8.946;2023-05-14T00:26:24;2.00;;;1.90;;
19595;SDS011;9945;46.010;8.946;2023-05-14T00:28:51;2.35;;;2.00;;
19595;SDS011;9945;46.010;8.946;2023-05-14T00:31:18;2.17;;;1.98;;
19595;SDS011;9945;46.010;8.946;2023-05-14T00:33:44;1.95;;;1.85;;
19595;SDS011;9945;46.010;8.946;2023-05-14T00:36:13;1.58;;;1.52;;
19595;SDS011;9945;46.010;8.946;2023-05-14T00:38:39;2.72;;;1.63;;
19595;SDS011;9945;46.010;8.946;2023-05-14T00:41:06;1.45;;;1.40;;
19595;SDS011;9945;46.010;8.946;2023-05-14T00:43:33;1.70;;;1.65;;
19595;SDS011;9945;46.010;8.946;2023-05-14T00:46:00;1.73;;;1.60;;
19595;SDS011;9945;46.010;8.946;2023-05-14T00:48:27;1.85;;;1.75;;
19595;SDS011;9945;46.010;8.946;2023-05-14T00:50:54;2.30;;;2.10;;
19595;SDS011;9945;46.010;8.946;2023-05-14T00:53:23;4.53;;;2.35;;
19595;SDS011;9945;46.010;8.946;2023-05-14T00:55:50;2.35;;;2.15;;
19595;SDS011;9945;46.010;8.946;2023-05-14T00:58:17;2.50;;;2.08;;
19595;SDS011;9945;46.010;8.946;2023-05-14T01:00:44;2.10;;;1.95;;
19595;SDS011;9945;46.010;8.946;2023-05-14T01:03:11;2.53;;;2.40;;
19595;SDS011;9945;46.010;8.946;2023-05-14T01:05:40;3.75;;;2.90;;
19595;SDS011;9945;46.010;8.946;2023-05-14T01:08:15;2.47;;;2.38;;
19595;SDS011;9945;46.010;8.946;2023-05-14T01:10:55;3.22;;;2.60;;
19595;SDS011;9945;46.010;8.946;2023-05-14T01:13:26;4.80;;;2.60;;
19595;SDS011;9945;46.010;8.946;2023-05-14T01:16:02;3.30;;;2.50;;
19595;SDS011;9945;46.010;8.946;2023-05-14T01:18:29;2.38;;;2.28;;
19595;SDS011;9945;46.010;8.946;2023-05-14T01:20:58;2.45;;;2.28;;
19595;SDS011;9945;46.010;8.946;2023-05-14T01:23:26;2.63;;;2.50;;
19595;SDS011;9945;46.010;8.946;2023-05-14T01:25:53;2.42;;;2.22;;
19595;SDS011;9945;46.010;8.946;2023-05-14T01:28:21;2.33;;;2.13;;
19595;SDS011;9945;46.010;8.946;2023-05-14T01:30:55;1.98;;;1.88;;
19595;SDS011;9945;46.010;8.946;2023-05-14T01:33:26;2.22;;;2.13;;
19595;SDS011;9945;46.010;8.946;2023-05-14T01:35:54;2.10;;;2.00;;
19595;SDS011;9945;46.010;8.946;2023-05-14T01:38:22;1.88;;;1.70;;
19595;SDS011;9945;46.010;8.946;2023-05-14T01:40:51;2.60;;;2.17;;
19595;SDS011;9945;46.010;8.946;2023-05-14T01:43:19;4.07;;;2.00;;
19595;SDS011;9945;46.010;8.946;2023-05-14T01:45:46;2.20;;;2.10;;
19595;SDS011;9945;46.010;8.946;2023-05-14T01:48:13;2.72;;;2.00;;
19595;SDS011;9945;46.010;8.946;2023-05-14T01:50:40;2.35;;;2.15;;
19595;SDS011;9945;46.010;8.946;2023-05-14T01:53:07;3.67;;;1.88;;
19595;SDS011;9945;46.010;8.946;2023-05-14T01:55:34;2.53;;;1.92;;
19595;SDS011;9945;46.010;8.946;2023-05-14T01:58:02;3.80;;;1.75;;
19595;SDS011;9945;46.010;8.946;2023-05-14T02:00:29;2.10;;;1.90;;
19595;SDS011;9945;46.010;8.946;2023-05-14T02:02:56;1.83;;;1.63;;
19595;SDS011;9945;46.010;8.946;2023-05-14T02:05:22;1.52;;;1.52;;
19595;SDS011;9945;46.010;8.946;2023-05-14T02:07:49;4.75;;;1.80;;
19595;SDS011;9945;46.010;8.946;2023-05-14T02:10:16;3.90;;;1.50;;
19595;SDS011;9945;46.010;8.946;2023-05-14T02:12:43;1.90;;;1.80;;
19595;SDS011;9945;46.010;8.946;2023-05-14T02:15:11;2.75;;;1.27;;
19595;SDS011;9945;46.010;8.946;2023-05-14T02:17:38;1.58;;;1.20;;
19595;SDS011;9945;46.010;8.946;2023-05-14T02:20:06;2.33;;;1.48;;
19595;SDS011;9945;46.010;8.946;2023-05-14T02:22:34;1.23;;;1.20;;
19595;SDS011;9945;46.010;8.946;2023-05-14T02:25:01;1.10;;;1.10;;
19595;SDS011;9945;46.010;8.946;2023-05-14T02:27:28;1.90;;;1.25;;
19595;SDS011;9945;46.010;8.946;2023-05-14T02:29:54;1.20;;;1.20;;
19595;SDS011;9945;46.010;8.946;2023-05-14T02:32:26;1.70;;;1.40;;
19595;SDS011;9945;46.010;8.946;2023-05-14T02:34:53;1.40;;;1.30;;
19595;SDS011;9945;46.010;8.946;2023-05-14T02:37:20;1.33;;;1.33;;
19595;SDS011;9945;46.010;8.946;2023-05-14T02:39:46;1.60;;;1.50;;
19595;SDS011;9945;46.010;8.946;2023-05-14T02:42:14;1.42;;;1.42;;
19595;SDS011;9945;46.010;8.946;2023-05-14T02:44:40;1.42;;;1.40;;
19595;SDS011;9945;46.010;8.946;2023-05-14T02:47:07;1.42;;;1.42;;
19595;SDS011;9945;46.010;8.946;2023-05-14T02:49:35;2.35;;;1.23;;
19595;SDS011;9945;46.010;8.946;2023-05-14T02:52:02;1.45;;;1.35;;
19595;SDS011;9945;46.010;8.946;2023-05-14T02:54:29;2.30;;;1.30;;
19595;SDS011;9945;46.010;8.946;2023-05-14T02:56:56;1.30;;;1.30;;
19595;SDS011;9945;46.010;8.946;2023-05-14T02:59:23;2.40;;;1.38;;
19595;SDS011;9945;46.010;8.946;2023-05-14T03:01:50;3.10;;;1.63;;
19595;SDS011;9945;46.010;8.946;2023-05-14T03:04:17;1.90;;;1.25;;
19595;SDS011;9945;46.010;8.946;2023-05-14T03:06:45;1.70;;;1.60;;
19595;SDS011;9945;46.010;8.946;2023-05-14T03:09:12;1.60;;;1.50;;
19595;SDS011;9945;46.010;8.946;2023-05-14T03:11:39;1.63;;;1.52;;
19595;SDS011;9945;46.010;8.946;2023-05-14T03:14:06;1.52;;;1.42;;
19595;SDS011;9945;46.010;8.946;2023-05-14T03:16:33;1.60;;;1.50;;
19595;SDS011;9945;46.010;8.946;2023-05-14T03:18:59;2.05;;;1.95;;
19595;SDS011;9945;46.010;8.946;2023-05-14T03:21:26;12.82;;;2.03;;
19595;SDS011;9945;46.010;8.946;2023-05-14T03:23:54;1.73;;;1.60;;
19595;SDS011;9945;46.010;8.946;2023-05-14T03:26:21;3.17;;;1.70;;
19595;SDS011;9945;46.010;8.946;2023-05-14T03:28:48;2.15;;;1.88;;
19595;SDS011;9945;46.010;8.946;2023-05-14T03:31:16;2.42;;;1.80;;
19595;SDS011;9945;46.010;8.946;2023-05-14T03:33:42;2.25;;;1.60;;
19595;SDS011;9945;46.010;8.946;2023-05-14T03:36:09;2.67;;;1.88;;
19595;SDS011;9945;46.010;8.946;2023-05-14T03:38:36;3.08;;;1.50;;
19595;SDS011;9945;46.010;8.946;2023-05-14T03:41:04;1.67;;;1.50;;
19595;SDS011;9945;46.010;8.946;2023-05-14T03:43:31;1.90;;;1.80;;
19595;SDS011;9945;46.010;8.946;2023-05-14T03:45:58;1.83;;;1.70;;
19595;SDS011;9945;46.010;8.946;2023-05-14T03:48:25;2.17;;;1.60;;
19595;SDS011;9945;46.010;8.946;2023-05-14T03:50:52;1.83;;;1.73;;
19595;SDS011;9945;46.010;8.946;2023-05-14T03:53:18;6.20;;;2.00;;
19595;SDS011;9945;46.010;8.946;2023-05-14T03:55:45;4.43;;;1.92;;
19595;SDS011;9945;46.010;8.946;2023-05-14T03:58:13;2.83;;;2.00;;
19595;SDS011;9945;46.010;8.946;2023-05-14T04:00:41;2.20;;;2.05;;
19595;SDS011;9945;46.010;8.946;2023-05-14T04:03:08;7.03;;;1.98;;
19595;SDS011;9945;46.010;8.946;2023-05-14T04:05:35;2.45;;;2.25;;
19595;SDS011;9945;46.010;8.946;2023-05-14T04:08:02;2.10;;;2.00;;
19595;SDS011;9945;46.010;8.946;2023-05-14T04:10:29;2.88;;;1.85;;
19595;SDS011;9945;46.010;8.946;2023-05-14T04:12:57;2.97;;;2.00;;
19595;SDS011;9945;46.010;8.946;2023-05-14T04:15:25;3.28;;;1.98;;
19595;SDS011;9945;46.010;8.946;2023-05-14T04:17:52;3.50;;;1.70;;
19595;SDS011;9945;46.010;8.946;2023-05-14T04:20:19;3.00;;;1.90;;
19595;SDS011;9945;46.010;8.946;2023-05-14T04:22:46;2.15;;;2.05;;
19595;SDS011;9945;46.010;8.946;2023-05-14T04:25:12;3.03;;;2.00;;
19595;SDS011;9945;46.010;8.946;2023-05-14T04:27:39;1.90;;;1.80;;
19595;SDS011;9945;46.010;8.946;2023-05-14T04:30:07;2.80;;;2.10;;
19595;SDS011;9945;46.010;8.946;2023-05-14T04:32:36;2.40;;;2.20;;
19595;SDS011;9945;46.010;8.946;2023-05-14T04:35:03;1.83;;;1.73;;
19595;SDS011;9945;46.010;8.946;2023-05-14T04:37:31;3.05;;;1.88;;
19595;SDS011;9945;46.010;8.946;2023-05-14T04:39:58;1.92;;;1.83;;
19595;SDS011;9945;46.010;8.946;2023-05-14T04:42:25;2.92;;;2.15;;
19595;SDS011;9945;46.010;8.946;2023-05-14T04:44:52;3.35;;;2.03;;
19595;SDS011;9945;46.010;8.946;2023-05-14T04:47:18;2.47;;;1.95;;
19595;SDS011;9945;46.010;8.946;2023-05-14T04:49:47;2.60;;;2.10;;
19595;SDS011;9945;46.010;8.946;2023-05-14T04:52:14;7.13;;;2.00;;
19595;SDS011;9945;46.010;8.946;2023-05-14T04:54:41;1.75;;;1.65;;
19595;SDS011;9945;46.010;8.946;2023-05-14T04:57:08;2.28;;;2.17;;
19595;SDS011;9945;46.010;8.946;2023-05-14T04:59:34;2.10;;;1.92;;
19595;SDS011;9945;46.010;8.946;2023-05-14T05:02:01;2.38;;;2.25;;
19595;SDS011;9945;46.010;8.946;2023-05-14T05:04:28;2.35;;;2.25;;
19595;SDS011;9945;46.010;8.946;2023-05-14T05:06:57;3.33;;;2.38;;
19595;SDS011;9945;46.010;8.946;2023-05-14T05:09:23;4.15;;;1.80;;
19595;SDS011;9945;46.010;8.946;2023-05-14T05:11:50;7.97;;;2.35;;
19595;SDS011;9945;46.010;8.946;2023-05-14T05:14:17;2.10;;;2.00;;
19595;SDS011;9945;46.010;8.946;2023-05-14T05:16:44;4.80;;;2.05;;
19595;SDS011;9945;46.010;8.946;2023-05-14T05:19:11;2.50;;;2.30;;
19595;SDS011;9945;46.010;8.946;2023-05-14T05:21:37;3.33;;;2.28;;
19595;SDS011;9945;46.010;8.946;2023-05-14T05:24:06;2.13;;;2.00;;
19595;SDS011;9945;46.010;8.946;2023-05-14T05:26:33;2.70;;;2.40;;
19595;SDS011;9945;46.010;8.946;2023-05-14T05:29:01;4.53;;;2.30;;
19595;SDS011;9945;46.010;8.946;2023-05-14T05:31:28;1.90;;;1.80;;
19595;SDS011;9945;46.010;8.946;2023-05-14T05:33:56;4.15;;;2.35;;
19595;SDS011;9945;46.010;8.946;2023-05-14T05:36:24;3.45;;;2.88;;
19595;SDS011;9945;46.010;8.946;2023-05-14T05:38:51;2.60;;;2.40;;
19595;SDS011;9945;46.010;8.946;2023-05-14T05:41:19;2.80;;;2.60;;
19595;SDS011;9945;46.010;8.946;2023-05-14T05:43:46;3.30;;;2.28;;
19595;SDS011;9945;46.010;8.946;2023-05-14T05:46:13;2.38;;;2.22;;
19595;SDS011;9945;46.010;8.946;2023-05-14T05:48:40;2.60;;;2.40;;
19595;SDS011;9945;46.010;8.946;2023-05-14T05:51:07;2.33;;;2.20;;
19595;SDS011;9945;46.010;8.946;2023-05-14T05:53:33;3.38;;;2.28;;
19595;SDS011;9945;46.010;8.946;2023-05-14T05:56:00;2.30;;;2.20;;
19595;SDS011;9945;46.010;8.946;2023-05-14T05:58:28;2.80;;;2.63;;
19595;SDS011;9945;46.010;8.946;2023-05-14T06:00:55;4.10;;;2.33;;
19595;SDS011;9945;46.010;8.946;2023-05-14T06:03:22;2.80;;;2.60;;
19595;SDS011;9945;46.010;8.946;2023-05-14T06:05:49;7.75;;;4.03;;
19595;SDS011;9945;46.010;8.946;2023-05-14T06:08:17;5.60;;;2.20;;
19595;SDS011;9945;46.010;8.946;2023-05-14T06:10:44;5.25;;;2.20;;
19595;SDS011;9945;46.010;8.946;2023-05-14T06:13:11;2.15;;;1.73;;
19595;SDS011;9945;46.010;8.946;2023-05-14T06:15:39;2.75;;;1.98;;
19595;SDS011;9945;46.010;8.946;2023-05-14T06:18:06;2.13;;;1.92;;
19595;SDS011;9945;46.010;8.946;2023-05-14T06:20:33;1.70;;;1.60;;
19595;SDS011;9945;46.010;8.946;2023-05-14T06:22:59;2.28;;;2.13;;
19595;SDS011;9945;46.010;8.946;2023-05-14T06:25:26;1.65;;;1.55;;
19595;SDS011;9945;46.010;8.946;2023-05-14T06:27:53;2.00;;;1.85;;
19595;SDS011;9945;46.010;8.946;2023-05-14T06:30:20;2.17;;;1.55;;
19595;SDS011;9945;46.010;8.946;2023-05-14T06:32:48;1.80;;;1.70;;
19595;SDS011;9945;46.010;8.946;2023-05-14T06:35:16;3.35;;;2.00;;
19595;SDS011;9945;46.010;8.946;2023-05-14T06:37:43;4.30;;;1.60;;
19595;SDS011;9945;46.010;8.946;2023-05-14T06:40:10;1.40;;;1.30;;
19595;SDS011;9945;46.010;8.946;2023-05-14T06:42:39;1.55;;;1.30;;
19595;SDS011;9945;46.010;8.946;2023-05-14T06:45:06;1.75;;;1.45;;
19595;SDS011;9945;46.010;8.946;2023-05-14T06:47:33;2.53;;;1.55;;
19595;SDS011;9945;46.010;8.946;2023-05-14T06:50:02;1.40;;;1.38;;
19595;SDS011;9945;46.010;8.946;2023-05-14T06:52:29;1.50;;;1.40;;
19595;SDS011;9945;46.010;8.946;2023-05-14T06:54:56;1.98;;;1.48;;
19595;SDS011;9945;46.010;8.946;2023-05-14T06:57:23;2.00;;;1.20;;
19595;SDS011;9945;46.010;8.946;2023-05-14T06:59:49;1.65;;;1.55;;
19595;SDS011;9945;46.010;8.946;2023-05-14T07:02:16;2.17;;;1.50;;
19595;SDS011;9945;46.010;8.946;2023-05-14T07:04:43;1.58;;;1.48;;
19595;SDS011;9945;46.010;8.946;2023-05-14T07:07:11;1.95;;;1.30;;
19595;SDS011;9945;46.010;8.946;2023-05-14T07:09:42;1.45;;;1.35;;
19595;SDS011;9945;46.010;8.946;2023-05-14T07:12:09;1.50;;;1.40;;
19595;SDS011;9945;46.010;8.946;2023-05-14T07:14:35;1.65;;;1.55;;
19595;SDS011;9945;46.010;8.946;2023-05-14T07:17:02;1.50;;;1.40;;
19595;SDS011;9945;46.010;8.946;2023-05-14T07:19:29;0.93;;;0.93;;
19595;SDS011;9945;46.010;8.946;2023-05-14T07:21:56;1.40;;;1.30;;
19595;SDS011;9945;46.010;8.946;2023-05-14T07:24:24;2.10;;;1.92;;
19595;SDS011;9945;46.010;8.946;2023-05-14T07:26:51;2.25;;;2.10;;
19595;SDS011;9945;46.010;8.946;2023-05-14T07:29:18;3.80;;;1.75;;
19595;SDS011;9945;46.010;8.946;2023-05-14T07:31:45;1.52;;;1.15;;
19595;SDS011;9945;46.010;8.946;2023-05-14T07:34:12;1.25;;;1.15;;
19595;SDS011;9945;46.010;8.946;2023-05-14T07:36:39;1.70;;;1.33;;
19595;SDS011;9945;46.010;8.946;2023-05-14T07:39:06;1.30;;;1.20;;
19595;SDS011;9945;46.010;8.946;2023-05-14T07:41:34;1.27;;;1.10;;
19595;SDS011;9945;46.010;8.946;2023-05-14T07:44:01;3.17;;;1.60;;
19595;SDS011;9945;46.010;8.946;2023-05-14T07:46:27;1.20;;;1.20;;
19595;SDS011;9945;46.010;8.946;2023-05-14T07:48:54;2.83;;;1.20;;
19595;SDS011;9945;46.010;8.946;2023-05-14T07:51:21;1.33;;;1.30;;
19595;SDS011;9945;46.010;8.946;2023-05-14T07:53:48;1.83;;;1.40;;
19595;SDS011;9945;46.010;8.946;2023-05-14T07:56:15;1.65;;;0.90;;
19595;SDS011;9945;46.010;8.946;2023-05-14T07:58:43;1.45;;;1.40;;
19595;SDS011;9945;46.010;8.946;2023-05-14T08:01:10;1.40;;;1.30;;
19595;SDS011;9945;46.010;8.946;2023-05-14T08:03:37;2.38;;;1.48;;
19595;SDS011;9945;46.010;8.946;2023-05-14T08:06:04;1.35;;;1.25;;
19595;SDS011;9945;46.010;8.946;2023-05-14T08:08:31;1.10;;;1.00;;
19595;SDS011;9945;46.010;8.946;2023-05-14T08:10:57;1.67;;;0.88;;
19595;SDS011;9945;46.010;8.946;2023-05-14T08:13:24;2.38;;;1.50;;
19595;SDS011;9945;46.010;8.946;2023-05-14T08:15:53;1.40;;;1.30;;
19595;SDS011;9945;46.010;8.946;2023-05-14T08:18:20;0.88;;;0.88;;
19595;SDS011;9945;46.010;8.946;2023-05-14T08:20:47;1.00;;;1.00;;
19595;SDS011;9945;46.010;8.946;2023-05-14T08:23:14;0.88;;;0.88;;
19595;SDS011;9945;46.010;8.946;2023-05-14T08:25:40;3.65;;;1.10;;
19595;SDS011;9945;46.010;8.946;2023-05-14T08:28:07;1.23;;;1.10;;
19595;SDS011;9945;46.010;8.946;2023-05-14T08:30:34;0.90;;;0.90;;
19595;SDS011;9945;46.010;8.946;2023-05-14T08:33:02;3.97;;;1.65;;
19595;SDS011;9945;46.010;8.946;2023-05-14T08:35:29;2.47;;;1.25;;
19595;SDS011;9945;46.010;8.946;2023-05-14T08:37:56;1.00;;;1.00;;
19595;SDS011;9945;46.010;8.946;2023-05-14T08:40:22;1.05;;;1.00;;
19595;SDS011;9945;46.010;8.946;2023-05-14T08:42:50;0.80;;;0.80;;
19595;SDS011;9945;46.010;8.946;2023-05-14T08:45:18;0.77;;;0.77;;
19595;SDS011;9945;46.010;8.946;2023-05-14T08:47:46;0.98;;;0.90;;
19595;SDS011;9945;46.010;8.946;2023-05-14T08:50:16;1.13;;;1.10;;
19595;SDS011;9945;46.010;8.946;2023-05-14T08:52:44;2.42;;;0.88;;
19595;SDS011;9945;46.010;8.946;2023-05-14T08:55:11;1.20;;;1.10;;
19595;SDS011;9945;46.010;8.946;2023-05-14T08:57:38;0.80;;;0.80;;
19595;SDS011;9945;46.010;8.946;2023-05-14T09:00:06;1.08;;;1.08;;
19595;SDS011;9945;46.010;8.946;2023-05-14T09:02:35;0.93;;;0.93;;
19595;SDS011;9945;46.010;8.946;2023-05-14T09:05:05;1.00;;;1.00;;
19595;SDS011;9945;46.010;8.946;2023-05-14T09:07:34;0.82;;;0.80;;
19595;SDS011;9945;46.010;8.946;2023-05-14T09:10:01;0.85;;;0.85;;
19595;SDS011;9945;46.010;8.946;2023-05-14T09:12:29;1.80;;;0.75;;
19595;SDS011;9945;46.010;8.946;2023-05-14T09:14:56;0.75;;;0.75;;
19595;SDS011;9945;46.010;8.946;2023-05-14T09:17:24;3.47;;;0.80;;
19595;SDS011;9945;46.010;8.946;2023-05-14T09:19:51;1.25;;;1.25;;
19595;SDS011;9945;46.010;8.946;2023-05-14T09:22:19;1.13;;;1.13;;
19595;SDS011;9945;46.010;8.946;2023-05-14T09:24:48;3.13;;;1.10;;
19595;SDS011;9945;46.010;8.946;2023-05-14T09:27:28;3.50;;;1.00;;
19595;SDS011;9945;46.010;8.946;2023-05-14T09:30:02;1.38;;;0.80;;
19595;SDS011;9945;46.010;8.946;2023-05-14T09:32:34;1.02;;;1.00;;
19595;SDS011;9945;46.010;8.946;2023-05-14T09:35:08;1.20;;;1.10;;
19595;SDS011;9945;46.010;8.946;2023-05-14T09:37:36;3.70;;;0.82;;
19595;SDS011;9945;46.010;8.946;2023-05-14T09:40:08;1.17;;;1.05;;
19595;SDS011;9945;46.010;8.946;2023-05-14T09:42:36;0.73;;;0.73;;
19595;SDS011;9945;46.010;8.946;2023-05-14T09:45:03;3.58;;;1.13;;
19595;SDS011;9945;46.010;8.946;2023-05-14T09:47:32;1.08;;;0.90;;
19595;SDS011;9945;46.010;8.946;2023-05-14T09:49:58;1.58;;;0.70;;
19595;SDS011;9945;46.010;8.946;2023-05-14T09:52:25;0.68;;;0.68;;
19595;SDS011;9945;46.010;8.946;2023-05-14T09:54:52;1.92;;;0.85;;
19595;SDS011;9945;46.010;8.946;2023-05-14T09:57:21;0.90;;;0.90;;
19595;SDS011;9945;46.010;8.946;2023-05-14T09:59:48;0.68;;;0.68;;
19595;SDS011;9945;46.010;8.946;2023-05-14T10:02:15;0.68;;;0.68;;
19595;SDS011;9945;46.010;8.946;2023-05-14T10:04:48;0.70;;;0.70;;
19595;SDS011;9945;46.010;8.946;2023-05-14T10:07:17;0.88;;;0.70;;
19595;SDS011;9945;46.010;8.946;2023-05-14T10:09:47;1.48;;;0.88;;
19595;SDS011;9945;46.010;8.946;2023-05-14T10:12:14;0.68;;;0.68;;
19595;SDS011;9945;46.010;8.946;2023-05-14T10:14:49;1.33;;;0.80;;
19595;SDS011;9945;46.010;8.946;2023-05-14T10:17:20;0.85;;;0.85;;
19595;SDS011;9945;46.010;8.946;2023-05-14T10:19:49;0.63;;;0.63;;
19595;SDS011;9945;46.010;8.946;2023-05-14T10:22:22;0.70;;;0.57;;
19595;SDS011;9945;46.010;8.946;2023-05-14T10:24:49;0.75;;;0.75;;
19595;SDS011;9945;46.010;8.946;2023-05-14T10:27:18;1.27;;;0.85;;
19595;SDS011;9945;46.010;8.946;2023-05-14T10:29:49;1.10;;;0.98;;
19595;SDS011;9945;46.010;8.946;2023-05-14T10:32:19;1.88;;;0.82;;
19595;SDS011;9945;46.010;8.946;2023-05-14T10:34:48;0.60;;;0.60;;
19595;SDS011;9945;46.010;8.946;2023-05-14T10:37:16;3.17;;;0.90;;
19595;SDS011;9945;46.010;8.946;2023-05-14T10:39:45;0.95;;;0.75;;
19595;SDS011;9945;46.010;8.946;2023-05-14T10:42:15;1.00;;;0.90;;
19595;SDS011;9945;46.010;8.946;2023-05-14T10:44:46;0.68;;;0.65;;
19595;SDS011;9945;46.010;8.946;2023-05-14T10:47:17;0.70;;;0.70;;
19595;SDS011;9945;46.010;8.946;2023-05-14T10:49:44;1.30;;;0.70;;
19595;SDS011;9945;46.010;8.946;2023-05-14T10:52:15;1.60;;;0.90;;
19595;SDS011;9945;46.010;8.946;2023-05-14T10:54:50;0.80;;;0.75;;
19595;SDS011;9945;46.010;8.946;2023-05-14T10:57:18;1.48;;;0.90;;
19595;SDS011;9945;46.010;8.946;2023-05-14T10:59:46;0.68;;;0.50;;
19595;SDS011;9945;46.010;8.946;2023-05-14T11:02:22;1.95;;;0.77;;
19595;SDS011;9945;46.010;8.946;2023-05-14T11:04:53;1.30;;;1.00;;
19595;SDS011;9945;46.010;8.946;2023-05-14T11:07:22;1.75;;;0.85;;
19595;SDS011;9945;46.010;8.946;2023-05-14T11:09:52;1.23;;;0.85;;
19595;SDS011;9945;46.010;8.946;2023-05-14T11:12:24;0.60;;;0.60;;
19595;SDS011;9945;46.010;8.946;2023-05-14T11:14:52;0.70;;;0.70;;
19595;SDS011;9945;46.010;8.946;2023-05-14T11:17:19;0.60;;;0.60;;
19595;SDS011;9945;46.010;8.946;2023-05-14T11:19:48;0.90;;;0.90;;
19595;SDS011;9945;46.010;8.946;2023-05-14T11:22:15;0.82;;;0.77;;
19595;SDS011;9945;46.010;8.946;2023-05-14T11:24:42;0.70;;;0.70;;
19595;SDS011;9945;46.010;8.946;2023-05-14T11:27:09;0.80;;;0.77;;
19595;SDS011;9945;46.010;8.946;2023-05-14T11:29:36;0.70;;;0.70;;
19595;SDS011;9945;46.010;8.946;2023-05-14T11:32:04;0.60;;;0.60;;
19595;SDS011;9945;46.010;8.946;2023-05-14T11:34:33;0.93;;;0.80;;
19595;SDS011;9945;46.010;8.946;2023-05-14T11:37:04;0.60;;;0.60;;
19595;SDS011;9945;46.010;8.946;2023-05-14T11:39:31;1.08;;;1.02;;
19595;SDS011;9945;46.010;8.946;2023-05-14T11:42:01;0.65;;;0.65;;
19595;SDS011;9945;46.010;8.946;2023-05-14T11:44:28;1.10;;;1.00;;
19595;SDS011;9945;46.010;8.946;2023-05-14T11:46:56;1.83;;;0.85;;
19595;SDS011;9945;46.010;8.946;2023-05-14T11:49:23;1.10;;;1.00;;
19595;SDS011;9945;46.010;8.946;2023-05-14T11:51:57;1.25;;;1.10;;
19595;SDS011;9945;46.010;8.946;2023-05-14T11:54:24;0.77;;;0.77;;
19595;SDS011;9945;46.010;8.946;2023-05-14T11:56:53;0.70;;;0.70;;
19595;SDS011;9945;46.010;8.946;2023-05-14T11:59:20;2.60;;;0.80;;
19595;SDS011;9945;46.010;8.946;2023-05-14T12:01:49;4.32;;;0.90;;
19595;SDS011;9945;46.010;8.946;2023-05-14T12:04:16;1.20;;;0.98;;
19595;SDS011;9945;46.010;8.946;2023-05-14T12:06:46;1.55;;;0.90;;
19595;SDS011;9945;46.010;8.946;2023-05-14T12:09:16;0.88;;;0.88;;
19595;SDS011;9945;46.010;8.946;2023-05-14T12:11:43;1.13;;;0.98;;
19595;SDS011;9945;46.010;8.946;2023-05-14T12:14:11;0.65;;;0.65;;
19595;SDS011;9945;46.010;8.946;2023-05-14T12:16:40;2.80;;;0.70;;
19595;SDS011;9945;46.010;8.946;2023-05-14T12:19:07;0.90;;;0.90;;
19595;SDS011;9945;46.010;8.946;2023-05-14T12:21:36;0.90;;;0.70;;
19595;SDS011;9945;46.010;8.946;2023-05-14T12:24:04;1.33;;;0.77;;
19595;SDS011;9945;46.010;8.946;2023-05-14T12:26:35;1.17;;;1.00;;
19595;SDS011;9945;46.010;8.946;2023-05-14T12:29:04;1.25;;;0.88;;
19595;SDS011;9945;46.010;8.946;2023-05-14T12:31:32;1.23;;;0.80;;
19595;SDS011;9945;46.010;8.946;2023-05-14T12:34:00;1.38;;;0.70;;
19595;SDS011;9945;46.010;8.946;2023-05-14T12:36:27;1.02;;;1.00;;
19595;SDS011;9945;46.010;8.946;2023-05-14T12:38:57;1.38;;;1.08;;
19595;SDS011;9945;46.010;8.946;2023-05-14T12:41:27;1.00;;;0.90;;
19595;SDS011;9945;46.010;8.946;2023-05-14T12:43:56;1.00;;;0.85;;
19595;SDS011;9945;46.010;8.946;2023-05-14T12:46:24;1.40;;;1.10;;
19595;SDS011;9945;46.010;8.946;2023-05-14T12:48:52;1.98;;;1.20;;
19595;SDS011;9945;46.010;8.946;2023-05-14T12:51:19;0.93;;;0.93;;
19595;SDS011;9945;46.010;8.946;2023-05-14T12:53:46;1.83;;;0.77;;
19595;SDS011;9945;46.010;8.946;2023-05-14T12:56:13;1.38;;;1.27;;
19595;SDS011;9945;46.010;8.946;2023-05-14T12:58:40;3.53;;;1.00;;
19595;SDS011;9945;46.010;8.946;2023-05-14T13:01:08;0.85;;;0.73;;
19595;SDS011;9945;46.010;8.946;2023-05-14T13:03:35;0.70;;;0.70;;
19595;SDS011;9945;46.010;8.946;2023-05-14T13:06:02;4.85;;;1.02;;
19595;SDS011;9945;46.010;8.946;2023-05-14T13:08:29;1.17;;;0.75;;
19595;SDS011;9945;46.010;8.946;2023-05-14T13:10:56;1.55;;;0.70;;
19595;SDS011;9945;46.010;8.946;2023-05-14T13:13:23;1.02;;;0.90;;
19595;SDS011;9945;46.010;8.946;2023-05-14T13:15:49;1.55;;;0.73;;
19595;SDS011;9945;46.010;8.946;2023-05-14T13:18:18;2.20;;;0.88;;
19595;SDS011;9945;46.010;8.946;2023-05-14T13:20:45;0.60;;;0.60;;
19595;SDS011;9945;46.010;8.946;2023-05-14T13:23:12;0.60;;;0.60;;
19595;SDS011;9945;46.010;8.946;2023-05-14T13:25:39;0.95;;;0.68;;
19595;SDS011;9945;46.010;8.946;2023-05-14T13:28:06;0.63;;;0.63;;
19595;SDS011;9945;46.010;8.946;2023-05-14T13:30:33;0.60;;;0.60;;
19595;SDS011;9945;46.010;8.946;2023-05-14T13:33:00;1.50;;;0.73;;
19595;SDS011;9945;46.010;8.946;2023-05-14T13:35:28;0.98;;;0.60;;
19595;SDS011;9945;46.010;8.946;2023-05-14T13:37:55;0.52;;;0.52;;
19595;SDS011;9945;46.010;8.946;2023-05-14T13:40:22;0.63;;;0.60;;
19595;SDS011;9945;46.010;8.946;2023-05-14T13:42:49;0.93;;;0.73;;
19595;SDS011;9945;46.010;8.946;2023-05-14T13:45:15;0.50;;;0.50;;
19595;SDS011;9945;46.010;8.946;2023-05-14T13:47:42;0.63;;;0.63;;
19595;SDS011;9945;46.010;8.946;2023-05-14T13:50:09;1.73;;;0.70;;
19595;SDS011;9945;46.010;8.946;2023-05-14T13:52:37;2.40;;;1.13;;
19595;SDS011;9945;46.010;8.946;2023-05-14T13:55:05;0.82;;;0.80;;
19595;SDS011;9945;46.010;8.946;2023-05-14T13:57:32;0.63;;;0.47;;
19595;SDS011;9945;46.010;8.946;2023-05-14T13:59:59;3.05;;;0.90;;
19595;SDS011;9945;46.010;8.946;2023-05-14T14:02:26;0.85;;;0.85;;
19595;SDS011;9945;46.010;8.946;2023-05-14T14:04:53;0.70;;;0.70;;
19595;SDS011;9945;46.010;8.946;2023-05-14T14:07:20;0.98;;;0.93;;
19595;SDS011;9945;46.010;8.946;2023-05-14T14:09:48;4.82;;;0.90;;
19595;SDS011;9945;46.010;8.946;2023-05-14T14:12:15;0.73;;;0.73;;
19595;SDS011;9945;46.010;8.946;2023-05-14T14:14:42;1.40;;;0.80;;
19595;SDS011;9945;46.010;8.946;2023-05-14T14:17:09;0.73;;;0.73;;
19595;SDS011;9945;46.010;8.946;2023-05-14T14:19:35;2.03;;;0.70;;
19595;SDS011;9945;46.010;8.946;2023-05-14T14:22:02;3.20;;;0.95;;
19595;SDS011;9945;46.010;8.946;2023-05-14T14:24:30;0.93;;;0.60;;
19595;SDS011;9945;46.010;8.946;2023-05-14T14:26:58;0.77;;;0.77;;
19595;SDS011;9945;46.010;8.946;2023-05-14T14:29:26;1.10;;;0.70;;
19595;SDS011;9945;46.010;8.946;2023-05-14T14:31:55;1.27;;;0.80;;
19595;SDS011;9945;46.010;8.946;2023-05-14T14:34:22;0.95;;;0.75;;
19595;SDS011;9945;46.010;8.946;2023-05-14T14:36:48;0.65;;;0.65;;
19595;SDS011;9945;46.010;8.946;2023-05-14T14:39:15;0.90;;;0.90;;
19595;SDS011;9945;46.010;8.946;2023-05-14T14:41:42;1.23;;;0.73;;
19595;SDS011;9945;46.010;8.946;2023-05-14T14:44:11;1.67;;;0.70;;
19595;SDS011;9945;46.010;8.946;2023-05-14T14:46:37;0.70;;;0.70;;
19595;SDS011;9945;46.010;8.946;2023-05-14T14:49:04;0.73;;;0.73;;
19595;SDS011;9945;46.010;8.946;2023-05-14T14:51:31;0.88;;;0.88;;
19595;SDS011;9945;46.010;8.946;2023-05-14T14:53:58;1.48;;;0.50;;
19595;SDS011;9945;46.010;8.946;2023-05-14T14:56:25;0.88;;;0.80;;
19595;SDS011;9945;46.010;8.946;2023-05-14T14:58:52;3.05;;;0.90;;
19595;SDS011;9945;46.010;8.946;2023-05-14T15:01:20;0.65;;;0.65;;
19595;SDS011;9945;46.010;8.946;2023-05-14T15:03:48;3.15;;;1.02;;